sensor_id;sensor_type;location;lat;lon;timestamp;pressure;altitude;pressure_sealevel;temperature;humidity
55685;BME280;41883;49.544;8.646;2023-03-29T10:58:30;100470.50;;;19.43;nan
55685;BME280;41883;49.544;8.646;2023-03-29T11:03:41;100481.91;;;21.78;nan
55685;BME280;41883;49.544;8.646;2023-03-29T11:13:49;100506.28;;;23.32;nan
55685;BME280;41883;49.544;8.646;2023-03-29T11:18:45;100485.34;;;22.34;nan
55685;BME280;41883;49.544;8.646;2023-03-29T11:23:48;100502.69;;;23.79;nan
55685;BME280;41883;49.544;8.646;2023-03-29T11:26:21;100506.69;;;23.65;nan
55685;BME280;41883;49.544;8.646;2023-03-29T11:34:43;100477.06;;;22.82;nan
55685;BME280;41883;49.544;8.646;2023-03-29T11:37:02;100485.78;;;22.31;nan
55685;BME280;41883;49.544;8.646;2023-03-29T11:39:47;100469.75;;;21.38;nan
55685;BME280;41883;49.544;8.646;2023-03-29T11:42:17;100473.38;;;20.64;nan
55685;BME280;41883;49.544;8.646;2023-03-29T11:44:44;100461.56;;;20.08;nan
55685;BME280;41883;49.544;8.646;2023-03-29T11:56:58;100433.03;;;19.17;nan
55685;BME280;41883;49.544;8.646;2023-03-29T11:59:30;100436.56;;;20.07;nan
55685;BME280;41883;49.544;8.646;2023-03-29T12:02:04;100437.09;;;20.23;nan
55685;BME280;41883;49.544;8.646;2023-03-29T12:04:37;100428.53;;;20.07;nan
55685;BME280;41883;49.544;8.646;2023-03-29T12:09:35;100427.13;;;19.53;nan
55685;BME280;41883;49.544;8.646;2023-03-29T12:14:41;100412.28;;;19.57;nan
55685;BME280;41883;49.544;8.646;2023-03-29T12:17:13;100421.31;;;19.69;nan
55685;BME280;41883;49.544;8.646;2023-03-29T12:22:05;100418.28;;;19.46;nan
55685;BME280;41883;49.544;8.646;2023-03-29T12:24:32;100413.94;;;19.51;nan
55685;BME280;41883;49.544;8.646;2023-03-29T12:29:34;100392.44;;;19.58;nan
55685;BME280;41883;49.544;8.646;2023-03-29T12:34:55;100388.91;;;19.19;nan
55685;BME280;41883;49.544;8.646;2023-03-29T12:40:00;100393.50;;;19.57;nan
55685;BME280;41883;49.544;8.646;2023-03-29T12:42:27;100387.88;;;19.65;nan
55685;BME280;41883;49.544;8.646;2023-03-29T12:44:56;100394.22;;;19.78;nan
55685;BME280;41883;49.544;8.646;2023-03-29T12:47:24;100387.00;;;19.78;nan
55685;BME280;41883;49.544;8.646;2023-03-29T12:49:54;100373.44;;;19.66;nan
55685;BME280;41883;49.544;8.646;2023-03-29T12:52:22;100371.56;;;19.67;nan
55685;BME280;41883;49.544;8.646;2023-03-29T12:54:55;100365.28;;;19.48;nan
55685;BME280;41883;49.544;8.646;2023-03-29T12:57:42;100354.16;;;19.38;nan
55685;BME280;41883;49.544;8.646;2023-03-29T13:00:17;100368.94;;;19.53;nan
55685;BME280;41883;49.544;8.646;2023-03-29T13:02:43;100349.59;;;19.45;nan
55685;BME280;41883;49.544;8.646;2023-03-29T13:07:44;100352.63;;;19.17;nan
55685;BME280;41883;49.544;8.646;2023-03-29T13:17:33;100347.00;;;19.31;nan
55685;BME280;41883;49.544;8.646;2023-03-29T17:01:40;100372.69;;;15.64;nan
55685;BME280;41883;49.544;8.646;2023-03-29T17:04:08;100372.53;;;15.50;nan
55685;BME280;41883;49.544;8.646;2023-03-29T17:06:33;100366.69;;;15.40;nan
55685;BME280;41883;49.544;8.646;2023-03-29T17:08:59;100363.13;;;15.33;nan
55685;BME280;41883;49.544;8.646;2023-03-29T17:11:24;100354.50;;;15.31;nan
55685;BME280;41883;49.544;8.646;2023-03-29T17:13:50;100353.41;;;15.11;nan
55685;BME280;41883;49.544;8.646;2023-03-29T17:16:16;100350.38;;;14.99;nan
55685;BME280;41883;49.544;8.646;2023-03-29T17:18:41;100344.41;;;14.97;nan
55685;BME280;41883;49.544;8.646;2023-03-29T17:21:08;100350.38;;;14.99;nan
55685;BME280;41883;49.544;8.646;2023-03-29T17:23:33;100344.78;;;14.94;nan
55685;BME280;41883;49.544;8.646;2023-03-29T17:25:59;100351.22;;;14.84;nan
55685;BME280;41883;49.544;8.646;2023-03-29T17:28:26;100345.25;;;14.82;nan
55685;BME280;41883;49.544;8.646;2023-03-29T17:30:52;100349.31;;;14.78;nan
55685;BME280;41883;49.544;8.646;2023-03-29T17:33:17;100347.66;;;14.77;nan
55685;BME280;41883;49.544;8.646;2023-03-29T17:35:45;100343.88;;;14.72;nan
55685;BME280;41883;49.544;8.646;2023-03-29T17:38:12;100345.25;;;14.68;nan
55685;BME280;41883;49.544;8.646;2023-03-29T17:40:38;100339.50;;;14.64;nan
55685;BME280;41883;49.544;8.646;2023-03-29T17:43:03;100337.81;;;14.63;nan
55685;BME280;41883;49.544;8.646;2023-03-29T17:45:29;100343.50;;;14.60;nan
55685;BME280;41883;49.544;8.646;2023-03-29T17:47:56;100344.53;;;14.59;nan
55685;BME280;41883;49.544;8.646;2023-03-29T17:50:21;100343.25;;;14.55;nan
55685;BME280;41883;49.544;8.646;2023-03-29T17:52:46;100339.25;;;14.51;nan
55685;BME280;41883;49.544;8.646;2023-03-29T17:55:12;100336.97;;;14.48;nan
55685;BME280;41883;49.544;8.646;2023-03-29T17:57:40;100333.66;;;14.45;nan
55685;BME280;41883;49.544;8.646;2023-03-29T18:00:06;100326.88;;;14.43;nan
55685;BME280;41883;49.544;8.646;2023-03-29T18:02:33;100327.25;;;14.40;nan
55685;BME280;41883;49.544;8.646;2023-03-29T18:04:59;100324.09;;;14.36;nan
55685;BME280;41883;49.544;8.646;2023-03-29T18:07:26;100329.78;;;14.33;nan
55685;BME280;41883;49.544;8.646;2023-03-29T18:09:52;100323.16;;;14.29;nan
55685;BME280;41883;49.544;8.646;2023-03-29T18:12:17;100328.84;;;14.26;nan
55685;BME280;41883;49.544;8.646;2023-03-29T18:14:42;100327.03;;;14.27;nan
55685;BME280;41883;49.544;8.646;2023-03-29T18:17:08;100325.38;;;14.26;nan
55685;BME280;41883;49.544;8.646;2023-03-29T18:19:34;100319.22;;;14.25;nan
55685;BME280;41883;49.544;8.646;2023-03-29T18:21:59;100319.94;;;14.19;nan
55685;BME280;41883;49.544;8.646;2023-03-29T18:24:25;100327.38;;;14.09;nan
55685;BME280;41883;49.544;8.646;2023-03-29T18:26:51;100330.06;;;14.00;nan
55685;BME280;41883;49.544;8.646;2023-03-29T18:29:16;100332.63;;;13.94;nan
55685;BME280;41883;49.544;8.646;2023-03-29T18:31:42;100337.00;;;13.87;nan
55685;BME280;41883;49.544;8.646;2023-03-29T18:34:08;100334.88;;;13.82;nan
55685;BME280;41883;49.544;8.646;2023-03-29T18:36:33;100327.09;;;13.80;nan
55685;BME280;41883;49.544;8.646;2023-03-29T18:38:59;100336.91;;;13.80;nan
55685;BME280;41883;49.544;8.646;2023-03-29T18:41:29;100334.03;;;13.81;nan
55685;BME280;41883;49.544;8.646;2023-03-29T18:43:55;100335.72;;;13.83;nan
55685;BME280;41883;49.544;8.646;2023-03-29T18:46:21;100332.28;;;13.74;nan
55685;BME280;41883;49.544;8.646;2023-03-29T18:48:48;100320.53;;;13.68;nan
55685;BME280;41883;49.544;8.646;2023-03-29T18:51:13;100325.84;;;13.68;nan
55685;BME280;41883;49.544;8.646;2023-03-29T18:53:39;100327.50;;;13.69;nan
55685;BME280;41883;49.544;8.646;2023-03-29T18:56:07;100325.28;;;13.73;nan
55685;BME280;41883;49.544;8.646;2023-03-29T18:58:32;100324.13;;;13.75;nan
55685;BME280;41883;49.544;8.646;2023-03-29T19:01:01;100324.59;;;13.79;nan
55685;BME280;41883;49.544;8.646;2023-03-29T19:03:28;100311.78;;;13.83;nan
55685;BME280;41883;49.544;8.646;2023-03-29T19:05:54;100311.88;;;13.89;nan
55685;BME280;41883;49.544;8.646;2023-03-29T19:08:20;100310.16;;;13.96;nan
55685;BME280;41883;49.544;8.646;2023-03-29T19:10:45;100307.63;;;14.03;nan
55685;BME280;41883;49.544;8.646;2023-03-29T19:13:11;100304.91;;;14.11;nan
55685;BME280;41883;49.544;8.646;2023-03-29T19:15:36;100319.94;;;14.19;nan
55685;BME280;41883;49.544;8.646;2023-03-29T19:18:04;100317.41;;;14.26;nan
55685;BME280;41883;49.544;8.646;2023-03-29T19:20:30;100319.88;;;14.27;nan
55685;BME280;41883;49.544;8.646;2023-03-29T19:22:55;100314.19;;;14.30;nan
55685;BME280;41883;49.544;8.646;2023-03-29T19:25:20;100304.38;;;14.31;nan
55685;BME280;41883;49.544;8.646;2023-03-29T19:27:46;100296.41;;;14.31;nan
55685;BME280;41883;49.544;8.646;2023-03-29T19:30:12;100283.75;;;14.33;nan
55685;BME280;41883;49.544;8.646;2023-03-29T19:32:38;100288.69;;;14.36;nan
55685;BME280;41883;49.544;8.646;2023-03-29T19:35:03;100277.03;;;14.37;nan
55685;BME280;41883;49.544;8.646;2023-03-29T19:37:29;100276.69;;;14.40;nan
55685;BME280;41883;49.544;8.646;2023-03-29T19:39:54;100269.97;;;14.44;nan
55685;BME280;41883;49.544;8.646;2023-03-29T19:42:21;100264.31;;;14.47;nan
55685;BME280;41883;49.544;8.646;2023-03-29T19:44:47;100260.63;;;14.48;nan
55685;BME280;41883;49.544;8.646;2023-03-29T19:47:12;100255.13;;;14.50;nan
55685;BME280;41883;49.544;8.646;2023-03-29T19:49:38;100250.94;;;14.55;nan
55685;BME280;41883;49.544;8.646;2023-03-29T19:52:03;100246.91;;;14.59;nan
55685;BME280;41883;49.544;8.646;2023-03-29T19:54:29;100237.72;;;14.62;nan
55685;BME280;41883;49.544;8.646;2023-03-29T19:56:55;100225.22;;;14.62;nan
55685;BME280;41883;49.544;8.646;2023-03-29T19:59:22;100230.38;;;14.64;nan
55685;BME280;41883;49.544;8.646;2023-03-29T20:01:47;100234.13;;;14.70;nan
55685;BME280;41883;49.544;8.646;2023-03-29T20:04:19;100227.03;;;14.77;nan
55685;BME280;41883;49.544;8.646;2023-03-29T20:06:45;100222.19;;;14.80;nan
55685;BME280;41883;49.544;8.646;2023-03-29T20:09:11;100225.13;;;14.85;nan
55685;BME280;41883;49.544;8.646;2023-03-29T20:11:36;100217.22;;;14.92;nan
55685;BME280;41883;49.544;8.646;2023-03-29T20:14:02;100209.66;;;14.96;nan
55685;BME280;41883;49.544;8.646;2023-03-29T20:16:28;100196.81;;;14.99;nan
55685;BME280;41883;49.544;8.646;2023-03-29T20:18:58;100199.09;;;15.02;nan
55685;BME280;41883;49.544;8.646;2023-03-29T20:21:26;100189.63;;;15.00;nan
55685;BME280;41883;49.544;8.646;2023-03-29T20:23:52;100188.34;;;14.96;nan
55685;BME280;41883;49.544;8.646;2023-03-29T20:26:18;100184.66;;;14.97;nan
55685;BME280;41883;49.544;8.646;2023-03-29T20:28:43;100181.56;;;14.93;nan
55685;BME280;41883;49.544;8.646;2023-03-29T20:31:08;100177.88;;;14.94;nan
55685;BME280;41883;49.544;8.646;2023-03-29T20:33:37;100170.28;;;14.91;nan
55685;BME280;41883;49.544;8.646;2023-03-29T20:36:03;100168.00;;;14.88;nan
55685;BME280;41883;49.544;8.646;2023-03-29T20:38:29;100172.69;;;14.86;nan
55685;BME280;41883;49.544;8.646;2023-03-29T20:40:55;100172.50;;;14.88;nan
55685;BME280;41883;49.544;8.646;2023-03-29T20:43:20;100165.09;;;14.83;nan
55685;BME280;41883;49.544;8.646;2023-03-29T20:45:46;100166.47;;;14.79;nan
55685;BME280;41883;49.544;8.646;2023-03-29T20:48:14;100167.66;;;14.76;nan
55685;BME280;41883;49.544;8.646;2023-03-29T20:50:40;100156.22;;;14.76;nan
55685;BME280;41883;49.544;8.646;2023-03-29T20:53:06;100151.06;;;14.74;nan
55685;BME280;41883;49.544;8.646;2023-03-29T20:55:32;100146.56;;;14.75;nan
55685;BME280;41883;49.544;8.646;2023-03-29T20:57:59;100152.09;;;14.73;nan
55685;BME280;41883;49.544;8.646;2023-03-29T21:00:26;100142.81;;;14.69;nan
55685;BME280;41883;49.544;8.646;2023-03-29T21:02:52;100142.81;;;14.69;nan
55685;BME280;41883;49.544;8.646;2023-03-29T21:05:19;100147.38;;;14.75;nan
55685;BME280;41883;49.544;8.646;2023-03-29T21:07:44;100142.50;;;14.79;nan
55685;BME280;41883;49.544;8.646;2023-03-29T21:10:12;100144.78;;;14.82;nan
55685;BME280;41883;49.544;8.646;2023-03-29T21:12:37;100147.44;;;14.82;nan
55685;BME280;41883;49.544;8.646;2023-03-29T21:15:04;100147.03;;;14.78;nan
55685;BME280;41883;49.544;8.646;2023-03-29T21:17:29;100145.91;;;14.73;nan
55685;BME280;41883;49.544;8.646;2023-03-29T21:19:55;100142.66;;;14.71;nan
55685;BME280;41883;49.544;8.646;2023-03-29T21:22:20;100136.28;;;14.72;nan
55685;BME280;41883;49.544;8.646;2023-03-29T21:24:47;100130.84;;;14.80;nan
55685;BME280;41883;49.544;8.646;2023-03-29T21:27:12;100125.41;;;14.88;nan
55685;BME280;41883;49.544;8.646;2023-03-29T21:29:38;100126.94;;;14.97;nan
55685;BME280;41883;49.544;8.646;2023-03-29T21:32:03;100128.81;;;15.03;nan
55685;BME280;41883;49.544;8.646;2023-03-29T21:34:28;100118.69;;;15.14;nan
55685;BME280;41883;49.544;8.646;2023-03-29T21:36:54;100123.47;;;15.25;nan
55685;BME280;41883;49.544;8.646;2023-03-29T21:39:19;100118.59;;;15.28;nan
55685;BME280;41883;49.544;8.646;2023-03-29T21:41:44;100115.56;;;15.32;nan
55685;BME280;41883;49.544;8.646;2023-03-29T21:44:10;100107.63;;;15.38;nan
55685;BME280;41883;49.544;8.646;2023-03-29T21:46:35;100107.84;;;15.43;nan
55685;BME280;41883;49.544;8.646;2023-03-29T21:49:01;100102.13;;;15.46;nan
55685;BME280;41883;49.544;8.646;2023-03-29T21:51:26;100107.50;;;15.53;nan
55685;BME280;41883;49.544;8.646;2023-03-29T21:53:52;100103.84;;;15.54;nan
55685;BME280;41883;49.544;8.646;2023-03-29T21:56:17;100105.91;;;15.59;nan
55685;BME280;41883;49.544;8.646;2023-03-29T21:58:43;100109.66;;;15.64;nan
55685;BME280;41883;49.544;8.646;2023-03-29T22:01:08;100113.53;;;15.62;nan
55685;BME280;41883;49.544;8.646;2023-03-29T22:03:37;100105.41;;;15.70;nan
55685;BME280;41883;49.544;8.646;2023-03-29T22:06:03;100109.97;;;15.76;nan
55685;BME280;41883;49.544;8.646;2023-03-29T22:08:32;100091.94;;;15.78;nan
55685;BME280;41883;49.544;8.646;2023-03-29T22:10:57;100106.88;;;15.79;nan
55685;BME280;41883;49.544;8.646;2023-03-29T22:13:23;100098.72;;;15.81;nan
55685;BME280;41883;49.544;8.646;2023-03-29T22:15:56;100106.31;;;15.84;nan
55685;BME280;41883;49.544;8.646;2023-03-29T22:18:27;100095.47;;;15.85;nan
55685;BME280;41883;49.544;8.646;2023-03-29T22:21:13;100104.28;;;15.86;nan
55685;BME280;41883;49.544;8.646;2023-03-29T22:23:43;100101.41;;;15.87;nan
55685;BME280;41883;49.544;8.646;2023-03-29T22:26:10;100095.66;;;15.84;nan
55685;BME280;41883;49.544;8.646;2023-03-29T22:28:36;100109.59;;;15.86;nan
55685;BME280;41883;49.544;8.646;2023-03-29T22:31:03;100113.72;;;15.88;nan
55685;BME280;41883;49.544;8.646;2023-03-29T22:33:28;100112.09;;;15.87;nan
55685;BME280;41883;49.544;8.646;2023-03-29T22:35:54;100110.41;;;15.86;nan
55685;BME280;41883;49.544;8.646;2023-03-29T22:38:20;100106.13;;;15.85;nan
55685;BME280;41883;49.544;8.646;2023-03-29T22:40:45;100093.41;;;15.87;nan
55685;BME280;41883;49.544;8.646;2023-03-29T22:43:11;100096.09;;;15.87;nan
55685;BME280;41883;49.544;8.646;2023-03-29T22:45:36;100107.56;;;15.88;nan
55685;BME280;41883;49.544;8.646;2023-03-29T22:48:02;100102.41;;;15.86;nan
55685;BME280;41883;49.544;8.646;2023-03-29T22:50:27;100104.69;;;15.89;nan
55685;BME280;41883;49.544;8.646;2023-03-29T22:52:53;100103.81;;;15.82;nan
55685;BME280;41883;49.544;8.646;2023-03-29T22:55:18;100104.69;;;15.83;nan
55685;BME280;41883;49.544;8.646;2023-03-29T22:57:44;100116.97;;;15.84;nan
55685;BME280;41883;49.544;8.646;2023-03-29T23:00:10;100108.97;;;15.84;nan
55685;BME280;41883;49.544;8.646;2023-03-29T23:02:37;100119.63;;;15.84;nan
55685;BME280;41883;49.544;8.646;2023-03-29T23:05:02;100114.88;;;15.79;nan
55685;BME280;41883;49.544;8.646;2023-03-29T23:07:28;100124.75;;;15.79;nan
55685;BME280;41883;49.544;8.646;2023-03-29T23:09:53;100121.63;;;15.75;nan
55685;BME280;41883;49.544;8.646;2023-03-29T23:12:19;100119.59;;;15.77;nan
55685;BME280;41883;49.544;8.646;2023-03-29T23:14:48;100126.34;;;15.73;nan
55685;BME280;41883;49.544;8.646;2023-03-29T23:17:13;100120.19;;;15.73;nan
55685;BME280;41883;49.544;8.646;2023-03-29T23:19:43;100121.22;;;15.71;nan
55685;BME280;41883;49.544;8.646;2023-03-29T23:22:08;100117.25;;;15.67;nan
55685;BME280;41883;49.544;8.646;2023-03-29T23:24:33;100106.75;;;15.66;nan
55685;BME280;41883;49.544;8.646;2023-03-29T23:26:59;100105.94;;;15.65;nan
55685;BME280;41883;49.544;8.646;2023-03-29T23:29:25;100113.13;;;15.65;nan
55685;BME280;41883;49.544;8.646;2023-03-29T23:31:50;100105.31;;;15.63;nan
55685;BME280;41883;49.544;8.646;2023-03-29T23:34:16;100100.19;;;15.62;nan
55685;BME280;41883;49.544;8.646;2023-03-29T23:36:42;100087.69;;;15.62;nan
55685;BME280;41883;49.544;8.646;2023-03-29T23:39:07;100072.47;;;15.56;nan
55685;BME280;41883;49.544;8.646;2023-03-29T23:41:34;100060.81;;;15.57;nan
55685;BME280;41883;49.544;8.646;2023-03-29T23:44:00;100047.44;;;15.50;nan
55685;BME280;41883;49.544;8.646;2023-03-29T23:46:27;100051.13;;;15.49;nan
55685;BME280;41883;49.544;8.646;2023-03-29T23:48:53;100037.19;;;15.47;nan
55685;BME280;41883;49.544;8.646;2023-03-29T23:51:18;100044.34;;;15.47;nan
55685;BME280;41883;49.544;8.646;2023-03-29T23:53:47;100033.09;;;15.51;nan
55685;BME280;41883;49.544;8.646;2023-03-29T23:56:12;100036.00;;;15.57;nan
55685;BME280;41883;49.544;8.646;2023-03-29T23:58:38;100041.72;;;15.54;nan
